Time;durP1;ratioP1;P1;durP2;ratioP2;P2;SDS_P1;SDS_P2;PMS_P1;PMS_P2;Temp;Humidity;BMP_temperature;BMP_pressure;BME280_temperature;BME280_humidity;BME280_pressure;Samples;Min_cycle;Max_cycle;Signal;HPM_P1;HPM_P2
2022/05/04 00:00:57;;;;;;;3.10;3.10;;;19.40;66.30;;;;;;5131523;27;43997;-71
2022/05/04 00:03:25;;;;;;;2.40;2.40;;;19.30;66.30;;;;;;5129960;27;44046;-71
2022/05/04 00:05:53;;;;;;;2.90;2.90;;;19.30;66.40;;;;;;5130170;27;44123;-72
2022/05/04 00:08:21;;;;;;;2.93;2.90;;;19.30;66.50;;;;;;5130351;27;43579;-70
2022/05/04 00:10:49;;;;;;;2.97;2.87;;;19.30;66.60;;;;;;5130602;27;43537;-71
2022/05/04 00:13:17;;;;;;;2.80;2.80;;;19.30;66.90;;;;;;5110985;27;45955;-71
2022/05/04 00:15:45;;;;;;;3.00;3.00;;;19.30;67.20;;;;;;5129534;27;43378;-71
2022/05/04 00:18:14;;;;;;;2.90;2.83;;;19.40;67.10;;;;;;5130265;27;44011;-73
2022/05/04 00:20:42;;;;;;;2.80;2.80;;;19.60;67.00;;;;;;5129882;27;43669;-72
2022/05/04 00:23:10;;;;;;;2.73;2.73;;;19.80;66.40;;;;;;5111228;27;46397;-71
2022/05/04 00:25:39;;;;;;;2.60;2.60;;;20.00;66.00;;;;;;5110458;27;45000;-72
2022/05/04 00:28:07;;;;;;;2.60;2.60;;;20.20;65.40;;;;;;5111226;27;44041;-72
2022/05/04 00:30:35;;;;;;;2.40;2.40;;;20.40;64.70;;;;;;5129859;27;43416;-72
2022/05/04 00:33:03;;;;;;;2.40;2.40;;;20.50;64.10;;;;;;5111069;27;44893;-71
2022/05/04 00:35:32;;;;;;;2.50;2.50;;;20.70;63.70;;;;;;5127907;27;44093;-72
2022/05/04 00:38:00;;;;;;;2.60;2.60;;;20.80;63.10;;;;;;5110130;27;44119;-72
2022/05/04 00:40:28;;;;;;;2.87;2.73;;;20.90;62.80;;;;;;5128593;27;43590;-71
2022/05/04 00:42:56;;;;;;;2.70;2.60;;;21.00;62.40;;;;;;5128829;27;44544;-72
2022/05/04 00:45:24;;;;;;;2.60;2.60;;;21.00;62.20;;;;;;5128275;27;43975;-71
2022/05/04 00:47:52;;;;;;;2.40;2.40;;;20.90;62.60;;;;;;5128821;27;44026;-71
2022/05/04 00:50:20;;;;;;;2.70;2.70;;;20.70;62.90;;;;;;5110423;27;44135;-71
2022/05/04 00:52:50;;;;;;;2.73;2.63;;;20.50;63.20;;;;;;5127533;27;44997;-72
2022/05/04 00:55:19;;;;;;;2.67;2.67;;;20.30;63.50;;;;;;5128420;27;43956;-71
2022/05/04 01:00:33;;;;;;;3.00;3.00;;;20.00;64.10;;;;;;5109727;27;43605;-72
2022/05/04 01:03:00;;;;;;;2.57;2.57;;;19.90;65.50;;;;;;5127881;27;45102;-72
2022/05/04 01:05:28;;;;;;;2.60;2.60;;;19.90;65.90;;;;;;5108995;27;44558;-71
2022/05/04 01:07:58;;;;;;;2.53;2.53;;;20.00;65.60;;;;;;5109792;27;43426;-72
2022/05/04 01:10:26;;;;;;;2.50;2.50;;;20.10;65.10;;;;;;5128322;27;44040;-71
2022/05/04 01:12:54;;;;;;;2.50;2.40;;;20.20;64.90;;;;;;5108935;27;44254;-71
2022/05/04 01:15:23;;;;;;;3.00;2.80;;;20.10;64.80;;;;;;5127409;27;43922;-71
2022/05/04 01:17:51;;;;;;;2.90;2.80;;;20.00;64.70;;;;;;5127807;27;43867;-71
2022/05/04 01:20:19;;;;;;;2.70;2.70;;;19.90;64.60;;;;;;5128427;27;43864;-72
2022/05/04 01:22:48;;;;;;;2.53;2.53;;;19.80;64.70;;;;;;5127783;27;43957;-72
2022/05/04 01:25:16;;;;;;;2.60;2.60;;;19.70;65.00;;;;;;5127777;27;43936;-72
2022/05/04 01:27:47;;;;;;;2.53;2.53;;;19.60;65.20;;;;;;5127399;27;44054;-73
2022/05/04 01:30:15;;;;;;;2.60;2.60;;;19.60;65.50;;;;;;5121696;27;43928;-72
2022/05/04 01:32:42;;;;;;;2.50;2.50;;;19.50;65.70;;;;;;5120352;27;44206;-71
2022/05/04 01:35:10;;;;;;;2.80;2.80;;;19.50;66.80;;;;;;5082757;27;1096406;-73
2022/05/04 01:37:38;;;;;;;2.40;2.40;;;19.60;66.90;;;;;;5122085;27;43960;-71
2022/05/04 01:40:09;;;;;;;2.73;2.73;;;19.70;66.60;;;;;;5122583;27;44039;-72
2022/05/04 01:42:37;;;;;;;2.50;2.50;;;19.90;66.10;;;;;;5128247;27;43885;-72
2022/05/04 01:45:07;;;;;;;3.10;2.90;;;20.00;65.50;;;;;;5128772;27;43955;-71
2022/05/04 01:47:35;;;;;;;2.63;2.63;;;20.00;65.30;;;;;;5128104;27;44400;-71
2022/05/04 01:50:04;;;;;;;3.07;2.97;;;20.00;65.20;;;;;;5129663;27;43998;-71
2022/05/04 01:52:32;;;;;;;2.80;2.80;;;19.90;65.00;;;;;;5109073;27;45921;-71
2022/05/04 01:55:00;;;;;;;2.63;2.63;;;19.80;65.00;;;;;;5128987;27;44120;-72
2022/05/04 01:57:29;;;;;;;2.40;2.40;;;19.70;65.20;;;;;;5128300;27;44131;-72
2022/05/04 01:59:57;;;;;;;2.40;2.40;;;19.60;65.50;;;;;;5128777;27;44023;-72
2022/05/04 02:02:26;;;;;;;2.50;2.50;;;19.60;65.70;;;;;;5127838;27;44001;-72
2022/05/04 02:04:55;;;;;;;2.67;2.67;;;19.50;65.80;;;;;;5127666;27;43919;-72
2022/05/04 02:07:22;;;;;;;2.80;2.80;;;19.50;66.80;;;;;;5128138;27;43385;-71
2022/05/04 02:09:50;;;;;;;2.63;2.63;;;19.50;67.00;;;;;;5128951;27;43901;-71
2022/05/04 02:12:19;;;;;;;2.50;2.50;;;19.60;66.80;;;;;;5109434;27;45830;-72
2022/05/04 02:14:48;;;;;;;2.40;2.40;;;19.80;66.30;;;;;;5128078;27;43848;-72
2022/05/04 02:17:16;;;;;;;2.70;2.70;;;19.90;65.80;;;;;;5128227;27;44248;-71
2022/05/04 02:19:44;;;;;;;2.60;2.60;;;19.90;65.50;;;;;;5109108;27;44208;-72
2022/05/04 02:22:12;;;;;;;2.47;2.47;;;19.80;65.30;;;;;;5128175;27;44062;-72
2022/05/04 02:24:40;;;;;;;2.33;2.33;;;19.80;65.30;;;;;;5127722;27;43955;-72
2022/05/04 02:27:08;;;;;;;2.30;2.30;;;19.70;65.40;;;;;;5128603;27;43958;-71
2022/05/04 02:29:36;;;;;;;2.20;2.20;;;19.60;65.60;;;;;;5127818;27;43946;-73
2022/05/04 02:32:06;;;;;;;2.30;2.30;;;19.50;65.80;;;;;;5109391;27;46794;-72
2022/05/04 02:34:34;;;;;;;2.33;2.33;;;19.50;65.90;;;;;;5127199;27;44210;-71
2022/05/04 02:39:47;;;;;;;2.50;2.50;;;19.40;66.90;;;;;;5128366;27;43918;-72
2022/05/04 02:42:15;;;;;;;2.63;2.63;;;19.40;67.00;;;;;;5127687;27;43992;-71
2022/05/04 02:44:47;;;;;;;2.30;2.30;;;19.60;66.70;;;;;;5127249;27;44099;-71
2022/05/04 02:47:16;;;;;;;2.40;2.40;;;19.80;66.30;;;;;;5127901;27;43398;-73
2022/05/04 02:49:44;;;;;;;2.30;2.30;;;19.80;65.80;;;;;;5128104;27;43965;-72
2022/05/04 02:52:12;;;;;;;2.43;2.43;;;19.90;65.60;;;;;;5127613;27;43900;-71
2022/05/04 02:54:40;;;;;;;2.30;2.30;;;19.80;65.40;;;;;;5108247;27;44857;-72
2022/05/04 02:57:08;;;;;;;2.43;2.43;;;19.70;65.20;;;;;;5127556;27;43970;-72
2022/05/04 02:59:36;;;;;;;2.80;2.80;;;19.60;65.40;;;;;;5127411;27;43791;-72
2022/05/04 03:04:51;;;;;;;2.20;2.20;;;19.50;65.80;;;;;;5127199;27;44014;-72
2022/05/04 03:07:19;;;;;;;2.40;2.40;;;19.50;66.00;;;;;;5127558;27;43719;-71
2022/05/04 03:09:47;;;;;;;2.40;2.40;;;19.40;66.10;;;;;;5127516;27;44094;-71
2022/05/04 03:12:16;;;;;;;2.33;2.23;;;19.40;66.90;;;;;;5127743;27;43981;-71
2022/05/04 03:14:44;;;;;;;2.50;2.50;;;19.40;66.90;;;;;;5107811;27;44581;-71
2022/05/04 03:17:12;;;;;;;2.00;2.00;;;19.60;66.80;;;;;;5127036;27;43907;-71
2022/05/04 03:19:40;;;;;;;2.50;2.50;;;19.80;66.20;;;;;;5127313;27;43758;-72
2022/05/04 03:22:09;;;;;;;2.53;2.47;;;19.90;65.60;;;;;;5108438;27;47183;-73
2022/05/04 03:24:38;;;;;;;2.70;2.70;;;19.90;65.40;;;;;;5126377;27;44124;-72
2022/05/04 03:27:07;;;;;;;2.60;2.60;;;19.90;65.30;;;;;;5127005;27;44307;-72
2022/05/04 03:29:35;;;;;;;2.50;2.50;;;19.80;65.10;;;;;;5127150;27;43957;-72
2022/05/04 03:32:03;;;;;;;2.40;2.40;;;19.70;65.20;;;;;;5108168;27;45998;-72
2022/05/04 03:34:31;;;;;;;2.40;2.40;;;19.60;65.30;;;;;;5126213;27;44041;-71
2022/05/04 03:36:59;;;;;;;2.60;2.60;;;19.60;65.50;;;;;;5127361;27;43465;-72
2022/05/04 03:39:28;;;;;;;2.43;2.43;;;19.50;65.60;;;;;;5127101;27;44013;-71
2022/05/04 03:41:56;;;;;;;2.33;2.33;;;19.50;65.90;;;;;;5127192;27;44879;-71
2022/05/04 03:44:24;;;;;;;2.50;2.50;;;19.40;66.50;;;;;;5126336;27;43434;-72
2022/05/04 03:46:53;;;;;;;1.93;1.93;;;19.40;66.80;;;;;;5127046;27;44007;-71
2022/05/04 03:49:22;;;;;;;2.30;2.30;;;19.50;66.70;;;;;;5127267;27;43888;-72
2022/05/04 03:51:50;;;;;;;2.40;2.40;;;19.70;66.30;;;;;;5108044;27;46422;-71
2022/05/04 03:54:18;;;;;;;2.20;2.20;;;19.80;65.80;;;;;;5126550;27;43994;-71
2022/05/04 03:56:47;;;;;;;2.30;2.30;;;19.80;65.40;;;;;;5126443;27;44005;-72
2022/05/04 03:59:15;;;;;;;2.40;2.40;;;19.80;65.20;;;;;;5108665;27;43916;-72
2022/05/04 04:01:43;;;;;;;2.50;2.50;;;19.70;65.10;;;;;;5125890;27;43988;-71
2022/05/04 04:04:11;;;;;;;2.00;2.00;;;19.60;65.40;;;;;;5126872;27;43808;-71
2022/05/04 04:06:39;;;;;;;2.10;2.10;;;19.60;65.50;;;;;;5125370;27;44003;-72
2022/05/04 04:09:07;;;;;;;2.23;2.23;;;19.50;65.70;;;;;;5127315;27;43962;-71
2022/05/04 04:11:35;;;;;;;3.07;2.30;;;19.50;65.90;;;;;;5107960;27;44969;-71
2022/05/04 04:14:10;;;;;;;2.20;2.20;;;19.40;65.90;;;;;;5126723;27;43904;-71
2022/05/04 04:16:38;;;;;;;2.30;2.30;;;19.40;66.10;;;;;;5107849;27;43450;-71
2022/05/04 04:19:06;;;;;;;2.27;2.27;;;19.40;66.50;;;;;;5108628;27;44046;-72
2022/05/04 04:21:52;;;;;;;2.20;2.20;;;19.50;66.40;;;;;;5126764;27;43925;-73
2022/05/04 04:24:21;;;;;;;2.30;2.30;;;19.70;66.00;;;;;;5126905;27;44009;-72
2022/05/04 04:26:51;;;;;;;2.20;2.20;;;19.90;65.40;;;;;;5127296;27;43365;-72
2022/05/04 04:29:20;;;;;;;2.23;2.23;;;19.90;65.00;;;;;;5130573;27;43473;-71
2022/05/04 04:31:48;;;;;;;3.07;2.30;;;19.90;64.80;;;;;;5129919;27;45529;-71
2022/05/04 04:34:16;;;;;;;2.70;2.20;;;19.80;64.70;;;;;;5110896;27;44292;-72
2022/05/04 04:36:44;;;;;;;2.93;2.20;;;19.80;64.80;;;;;;5111332;27;44052;-73
2022/05/04 04:39:12;;;;;;;2.50;2.43;;;19.60;64.90;;;;;;5130356;27;43868;-71
2022/05/04 04:41:40;;;;;;;2.50;2.50;;;19.60;65.20;;;;;;5130068;27;43802;-73
2022/05/04 04:44:08;;;;;;;2.20;2.20;;;19.50;65.50;;;;;;5130110;27;43922;-72
2022/05/04 04:46:38;;;;;;;2.50;2.40;;;19.50;65.80;;;;;;5130430;27;44055;-73
2022/05/04 04:49:06;;;;;;;2.80;2.20;;;19.40;65.90;;;;;;5130520;27;43961;-72
2022/05/04 04:51:34;;;;;;;2.33;2.13;;;19.40;66.60;;;;;;5129718;27;45135;-71
2022/05/04 04:54:02;;;;;;;3.90;2.40;;;19.50;66.60;;;;;;5130009;27;44074;-71
2022/05/04 04:56:31;;;;;;;2.80;2.60;;;19.60;66.20;;;;;;5130421;27;43941;-72
2022/05/04 04:58:59;;;;;;;3.57;2.70;;;19.70;65.90;;;;;;5111416;27;44227;-72
2022/05/04 05:01:29;;;;;;;2.43;2.33;;;19.70;65.50;;;;;;5110759;27;45730;-72
2022/05/04 05:03:59;;;;;;;2.77;2.57;;;19.60;65.20;;;;;;5123758;27;43990;-72
2022/05/04 05:06:27;;;;;;;2.43;2.33;;;19.60;65.40;;;;;;5111115;27;44006;-72
2022/05/04 05:08:55;;;;;;;2.50;2.30;;;19.50;65.60;;;;;;5130711;27;43447;-72
2022/05/04 05:11:23;;;;;;;2.47;2.37;;;19.40;65.80;;;;;;5129770;27;43913;-72
2022/05/04 05:16:37;;;;;;;2.03;2.03;;;19.30;66.10;;;;;;5129659;27;43481;-71
2022/05/04 05:19:06;;;;;;;2.33;2.20;;;19.30;66.30;;;;;;5130238;27;43446;-71
2022/05/04 05:21:34;;;;;;;2.20;2.10;;;19.30;66.40;;;;;;5129312;27;43963;-71
2022/05/04 05:24:02;;;;;;;2.80;2.37;;;19.30;66.80;;;;;;5129325;27;44057;-72
2022/05/04 05:26:30;;;;;;;2.47;2.27;;;19.30;66.90;;;;;;5129569;27;43947;-72
2022/05/04 05:28:58;;;;;;;2.10;2.10;;;19.50;66.70;;;;;;5130155;27;43982;-72
2022/05/04 05:31:26;;;;;;;2.20;2.10;;;19.70;66.20;;;;;;5129310;27;44084;-71
2022/05/04 05:33:54;;;;;;;2.47;2.37;;;19.90;65.80;;;;;;5128781;27;44326;-72
2022/05/04 05:36:25;;;;;;;2.93;2.10;;;20.00;65.20;;;;;;5110920;27;43954;-71
2022/05/04 05:38:52;;;;;;;2.50;2.30;;;20.00;65.00;;;;;;5128777;27;43937;-71
2022/05/04 05:41:23;;;;;;;2.07;1.97;;;19.90;64.80;;;;;;5110088;27;46377;-72
2022/05/04 05:43:51;;;;;;;2.40;2.20;;;19.80;64.70;;;;;;5129285;27;43971;-72
2022/05/04 05:46:20;;;;;;;2.23;2.17;;;19.70;65.00;;;;;;5129407;27;43999;-72
2022/05/04 05:48:48;;;;;;;2.20;2.20;;;19.60;65.20;;;;;;5129884;27;43845;-72
2022/05/04 05:51:16;;;;;;;2.07;2.07;;;19.60;65.50;;;;;;5110584;27;45986;-72
2022/05/04 05:53:45;;;;;;;2.53;2.53;;;19.50;65.60;;;;;;5128599;27;44045;-72
2022/05/04 05:56:13;;;;;;;2.30;2.30;;;19.40;65.80;;;;;;5128896;27;43378;-72
2022/05/04 05:58:41;;;;;;;2.50;2.40;;;19.40;66.50;;;;;;5129441;27;44005;-72
2022/05/04 06:01:09;;;;;;;2.80;2.60;;;19.40;66.40;;;;;;5129420;27;43912;-72
2022/05/04 06:03:37;;;;;;;2.30;2.30;;;19.60;66.10;;;;;;5128489;27;44055;-71
2022/05/04 06:06:06;;;;;;;2.30;2.30;;;19.70;65.70;;;;;;5129536;27;44056;-71
2022/05/04 06:08:34;;;;;;;2.57;2.50;;;19.70;65.50;;;;;;5110524;27;44030;-72
2022/05/04 06:11:04;;;;;;;2.53;2.40;;;19.60;65.00;;;;;;5129365;27;43844;-71
2022/05/04 06:13:31;;;;;;;2.63;2.53;;;19.60;65.20;;;;;;5129289;27;44316;-72
2022/05/04 06:15:59;;;;;;;2.23;2.20;;;19.50;65.40;;;;;;5129342;27;43993;-72
2022/05/04 06:18:27;;;;;;;2.43;2.43;;;19.40;65.50;;;;;;5129448;27;43977;-72
2022/05/04 06:20:55;;;;;;;2.33;2.33;;;19.40;65.80;;;;;;5128910;27;43904;-71
2022/05/04 06:23:23;;;;;;;2.60;2.40;;;19.30;65.90;;;;;;5128924;27;44031;-72
2022/05/04 06:25:51;;;;;;;2.53;2.43;;;19.30;65.70;;;;;;5129110;27;43844;-72
2022/05/04 06:28:20;;;;;;;2.63;2.53;;;19.30;65.90;;;;;;5129060;27;43934;-71
2022/05/04 06:36:19;;;;;;;2.80;2.60;;;19.50;66.20;;;;;;5128430;27;44041;-71
2022/05/04 06:38:47;;;;;;;2.60;2.50;;;19.80;65.70;;;;;;5110429;27;44039;-72
2022/05/04 06:41:15;;;;;;;2.30;2.30;;;19.90;65.00;;;;;;5128629;27;44100;-72
2022/05/04 06:43:45;;;;;;;2.57;2.37;;;20.00;64.70;;;;;;5127944;27;43401;-73
2022/05/04 06:46:13;;;;;;;2.53;2.53;;;19.90;64.60;;;;;;5127940;27;43943;-72
2022/05/04 06:48:41;;;;;;;2.20;2.20;;;19.80;64.50;;;;;;5128400;27;44099;-72
2022/05/04 06:51:09;;;;;;;2.17;2.13;;;19.70;64.70;;;;;;5127895;27;43998;-71
2022/05/04 06:53:36;;;;;;;2.30;2.30;;;19.60;65.00;;;;;;5128056;27;44008;-71
2022/05/04 06:56:16;;;;;;;2.53;2.43;;;19.50;65.30;;;;;;5109414;27;43927;-71
2022/05/04 06:58:46;;;;;;;2.17;2.17;;;19.50;65.60;;;;;;5128296;27;43952;-72
2022/05/04 07:01:14;;;;;;;2.60;2.53;;;19.40;65.70;;;;;;5127822;27;43992;-71
2022/05/04 07:03:42;;;;;;;2.83;2.60;;;19.40;66.30;;;;;;5127604;27;43481;-72
2022/05/04 07:06:10;;;;;;;2.50;2.50;;;19.40;66.40;;;;;;5128280;27;44008;-71
2022/05/04 07:08:38;;;;;;;2.30;2.30;;;19.60;66.10;;;;;;5109198;27;43804;-71
2022/05/04 07:11:05;;;;;;;2.50;2.40;;;19.70;65.80;;;;;;5127613;27;43910;-72
2022/05/04 07:13:33;;;;;;;2.30;2.20;;;19.70;65.40;;;;;;5127633;27;44333;-72
2022/05/04 07:16:03;;;;;;;2.40;2.40;;;19.70;65.30;;;;;;5109258;27;43434;-72
2022/05/04 07:18:31;;;;;;;2.20;2.20;;;19.60;65.30;;;;;;5128160;27;44085;-71
2022/05/04 07:20:59;;;;;;;2.20;2.20;;;19.50;65.40;;;;;;5128045;27;43598;-72
2022/05/04 07:23:27;;;;;;;2.30;2.30;;;19.50;65.70;;;;;;5127484;27;43981;-71
2022/05/04 07:25:55;;;;;;;2.50;2.30;;;19.40;65.90;;;;;;5127921;27;43823;-70
2022/05/04 07:28:23;;;;;;;2.60;2.60;;;19.40;66.10;;;;;;5127990;27;43622;-71
2022/05/04 07:30:51;;;;;;;2.37;2.37;;;19.30;66.10;;;;;;5127811;27;43915;-72
2022/05/04 07:33:20;;;;;;;2.70;2.60;;;19.30;66.30;;;;;;5108413;27;44795;-71
2022/05/04 07:35:48;;;;;;;2.70;2.60;;;19.30;66.40;;;;;;5126784;27;43999;-73
2022/05/04 07:38:16;;;;;;;2.43;2.43;;;19.30;66.70;;;;;;5127895;27;44001;-72
2022/05/04 07:43:30;;;;;;;2.40;2.30;;;19.50;66.40;;;;;;5127194;27;43950;-71
2022/05/04 07:45:58;;;;;;;2.40;2.30;;;19.70;65.80;;;;;;5127187;27;43983;-72
2022/05/04 07:48:27;;;;;;;2.30;2.30;;;19.90;65.30;;;;;;5109064;27;43924;-71
2022/05/04 07:50:55;;;;;;;2.30;2.30;;;19.90;64.80;;;;;;5127193;27;45068;-72
2022/05/04 07:53:23;;;;;;;2.50;2.40;;;19.90;64.80;;;;;;5127172;27;44044;-71
2022/05/04 07:55:51;;;;;;;2.63;2.57;;;19.80;64.80;;;;;;5127181;27;43971;-72
2022/05/04 07:58:19;;;;;;;2.33;2.33;;;19.70;65.00;;;;;;5127884;27;43746;-72
2022/05/04 08:06:20;;;;;;;2.40;2.40;;;19.50;65.70;;;;;;5130558;27;43931;-71
2022/05/04 08:08:47;;;;;;;2.20;2.20;;;19.40;65.90;;;;;;5131170;27;43882;-72
2022/05/04 08:11:15;;;;;;;2.37;2.27;;;19.40;66.50;;;;;;5130787;27;45154;-71
2022/05/04 08:13:43;;;;;;;2.27;2.27;;;19.40;67.30;;;;;;5130287;27;44037;-72
2022/05/04 08:16:13;;;;;;;2.10;2.10;;;19.50;66.20;;;;;;5130414;27;44026;-72
2022/05/04 08:18:42;;;;;;;2.30;2.30;;;19.60;65.80;;;;;;5124334;27;43944;-72
2022/05/04 08:21:10;;;;;;;2.37;2.33;;;19.70;65.60;;;;;;5123805;27;43934;-71
2022/05/04 08:23:38;;;;;;;2.33;2.30;;;19.60;66.10;;;;;;5123904;27;43951;-72
2022/05/04 08:26:06;;;;;;;2.10;2.10;;;19.60;65.50;;;;;;5105686;27;43968;-71
2022/05/04 08:28:34;;;;;;;2.20;2.20;;;19.50;65.60;;;;;;5105567;27;43921;-71
2022/05/04 08:31:02;;;;;;;2.00;2.00;;;19.50;66.00;;;;;;5123944;27;43962;-72
2022/05/04 08:33:30;;;;;;;2.10;2.10;;;19.40;66.10;;;;;;5097882;27;45103;-71
2022/05/04 08:35:59;;;;;;;2.37;2.37;;;19.30;66.20;;;;;;5123666;27;43455;-72
2022/05/04 08:38:27;;;;;;;2.37;2.37;;;19.30;66.40;;;;;;5117360;27;44063;-72
2022/05/04 08:40:56;;;;;;;2.17;2.17;;;19.30;66.50;;;;;;5130129;27;43916;-72
2022/05/04 08:43:25;;;;;;;2.50;2.30;;;19.30;66.60;;;;;;5130016;27;43999;-72
2022/05/04 08:45:53;;;;;;;2.33;2.20;;;19.30;66.90;;;;;;5129934;27;43797;-72
2022/05/04 08:48:21;;;;;;;2.47;2.37;;;19.40;66.80;;;;;;5130142;27;44262;-71
2022/05/04 08:50:50;;;;;;;2.63;2.53;;;19.60;66.50;;;;;;5111169;27;46353;-71
2022/05/04 08:53:20;;;;;;;2.20;2.17;;;19.80;65.90;;;;;;5130116;27;43413;-72
2022/05/04 08:55:48;;;;;;;2.57;2.37;;;19.90;65.30;;;;;;5111270;27;43983;-72
2022/05/04 08:58:15;;;;;;;2.47;2.37;;;19.90;65.00;;;;;;5130452;27;43904;-72
2022/05/04 09:00:43;;;;;;;2.63;2.53;;;19.90;64.80;;;;;;5129623;27;43782;-71
2022/05/04 09:03:11;;;;;;;2.43;2.33;;;19.80;65.00;;;;;;5129462;27;43978;-72
2022/05/04 09:05:40;;;;;;;2.40;2.30;;;19.70;65.20;;;;;;5110897;27;44002;-72
2022/05/04 09:08:09;;;;;;;2.40;2.40;;;19.60;65.40;;;;;;5111734;27;43840;-71
2022/05/04 09:10:40;;;;;;;2.30;2.30;;;19.50;65.70;;;;;;5129635;27;43913;-72
2022/05/04 09:13:08;;;;;;;2.30;2.20;;;19.50;66.00;;;;;;5129466;27;44133;-72
2022/05/04 09:15:40;;;;;;;2.07;2.07;;;19.40;66.10;;;;;;5129109;27;43994;-71
2022/05/04 09:18:13;;;;;;;2.20;2.20;;;19.40;66.70;;;;;;5130270;27;43442;-72
2022/05/04 09:20:55;;;;;;;2.10;2.10;;;19.40;66.80;;;;;;5129111;27;44053;-72
2022/05/04 09:23:24;;;;;;;2.37;2.37;;;19.50;66.40;;;;;;5110616;27;44751;-72
2022/05/04 09:25:54;;;;;;;2.10;2.10;;;19.60;66.00;;;;;;5129380;27;44044;-71
2022/05/04 09:28:24;;;;;;;2.20;2.00;;;19.60;65.70;;;;;;5129525;27;44014;-72
2022/05/04 09:30:52;;;;;;;2.03;2.03;;;19.60;65.60;;;;;;5129739;27;44635;-72
2022/05/04 09:33:21;;;;;;;2.00;2.00;;;19.50;65.70;;;;;;5129354;27;43920;-72
2022/05/04 09:35:50;;;;;;;2.00;2.00;;;19.50;66.00;;;;;;5110277;27;44058;-72
2022/05/04 09:46:40;;;;;;;2.20;2.20;;;19.30;66.60;;;;;;5128964;27;44339;-71
2022/05/04 09:49:12;;;;;;;2.30;2.30;;;19.30;66.70;;;;;;5123318;27;43499;-72
2022/05/04 09:51:40;;;;;;;2.23;2.23;;;19.30;67.20;;;;;;5128581;27;44089;-72
2022/05/04 09:54:20;;;;;;;2.20;2.20;;;19.40;66.90;;;;;;5129056;27;44029;-71
2022/05/04 09:56:50;;;;;;;2.07;2.07;;;19.60;66.50;;;;;;5128872;27;43991;-72
2022/05/04 09:59:19;;;;;;;2.07;2.07;;;19.80;66.00;;;;;;5129611;27;44067;-72
2022/05/04 10:01:48;;;;;;;2.07;2.07;;;19.90;65.40;;;;;;5128631;27;44269;-72
2022/05/04 10:04:16;;;;;;;2.10;2.10;;;19.90;65.10;;;;;;5128930;27;43455;-72
2022/05/04 10:06:44;;;;;;;1.80;1.80;;;19.90;65.10;;;;;;5129306;27;44050;-72
2022/05/04 10:09:12;;;;;;;2.00;2.00;;;19.80;65.30;;;;;;5129386;27;43947;-71
2022/05/04 10:11:40;;;;;;;2.37;2.37;;;19.70;65.60;;;;;;5128704;27;44051;-72
2022/05/04 10:14:12;;;;;;;2.10;2.10;;;19.60;65.80;;;;;;5128787;27;44052;-72
2022/05/04 10:16:44;;;;;;;2.13;2.13;;;19.50;66.80;;;;;;5128262;27;43959;-71
2022/05/04 10:19:16;;;;;;;2.13;2.13;;;19.50;66.30;;;;;;5129146;27;43907;-72
2022/05/04 10:21:44;;;;;;;2.17;2.13;;;19.40;66.50;;;;;;5128443;27;45018;-72
2022/05/04 10:24:13;;;;;;;2.27;2.17;;;19.40;66.90;;;;;;5110161;27;44420;-72
2022/05/04 10:26:41;;;;;;;1.80;1.80;;;19.50;66.80;;;;;;5109372;27;44379;-72
2022/05/04 10:32:09;;;;;;;2.30;2.30;;;19.70;65.90;;;;;;5105946;27;47210;-72
2022/05/04 10:34:42;;;;;;;2.33;2.33;;;19.70;65.80;;;;;;5108886;27;43498;-72
2022/05/04 10:37:10;;;;;;;2.30;2.30;;;19.60;65.80;;;;;;5128692;27;43892;-72
2022/05/04 10:39:38;;;;;;;2.17;2.17;;;19.50;66.00;;;;;;5109937;27;43565;-71
2022/05/04 10:42:06;;;;;;;2.20;2.13;;;19.50;66.20;;;;;;5128455;27;43949;-73
2022/05/04 10:44:54;;;;;;;2.17;2.17;;;19.40;66.20;;;;;;5128010;27;44141;-72
2022/05/04 10:47:23;;;;;;;2.13;2.13;;;19.40;66.40;;;;;;5109506;27;44016;-72
2022/05/04 10:49:59;;;;;;;2.40;2.40;;;19.30;66.40;;;;;;5127881;27;44022;-72
2022/05/04 10:52:32;;;;;;;2.37;2.37;;;19.30;66.60;;;;;;5127942;27;44800;-71
2022/05/04 10:55:03;;;;;;;2.23;2.23;;;19.30;67.00;;;;;;5128378;27;44208;-72
2022/05/04 10:57:41;;;;;;;2.13;2.13;;;19.30;66.90;;;;;;5127777;27;43961;-71
2022/05/04 11:00:30;;;;;;;2.50;2.40;;;19.50;66.70;;;;;;5128410;27;43497;-71
2022/05/04 11:02:58;;;;;;;3.77;2.83;;;19.70;66.00;;;;;;5128222;27;44210;-72
2022/05/04 11:05:26;;;;;;;2.83;2.63;;;19.90;64.70;;;;;;5108989;27;45058;-72
2022/05/04 11:07:53;;;;;;;2.90;2.80;;;19.90;64.50;;;;;;5123470;27;43964;-71
2022/05/04 11:10:22;;;;;;;2.50;2.50;;;19.90;64.50;;;;;;5128420;27;43990;-72
2022/05/04 11:12:49;;;;;;;2.40;2.40;;;19.80;64.60;;;;;;5127890;27;43922;-72
2022/05/04 11:15:17;;;;;;;2.40;2.30;;;19.80;65.00;;;;;;5127564;27;44055;-72
2022/05/04 11:17:50;;;;;;;2.53;2.47;;;19.60;65.30;;;;;;5127737;27;44087;-72
2022/05/04 11:20:18;;;;;;;2.73;2.63;;;19.60;65.70;;;;;;5121211;27;44017;-73
2022/05/04 11:22:45;;;;;;;2.20;2.20;;;19.50;65.90;;;;;;5119794;27;44076;-72
2022/05/04 11:25:18;;;;;;;2.40;2.40;;;19.40;66.20;;;;;;5121628;27;44065;-72
2022/05/04 11:27:45;;;;;;;2.40;2.40;;;19.40;66.60;;;;;;5127433;27;43930;-72
2022/05/04 11:30:14;;;;;;;2.27;2.17;;;19.40;66.80;;;;;;5127847;27;43445;-73
2022/05/04 11:32:43;;;;;;;2.27;2.20;;;19.50;66.40;;;;;;5127310;27;44195;-72
2022/05/04 11:35:15;;;;;;;2.40;2.30;;;19.60;66.00;;;;;;5127148;27;43992;-72
2022/05/04 11:37:43;;;;;;;2.30;2.20;;;19.70;65.80;;;;;;5110966;27;43982;-72
2022/05/04 11:40:14;;;;;;;2.33;2.23;;;19.70;65.90;;;;;;5131616;27;43959;-72
2022/05/04 11:42:42;;;;;;;2.23;2.20;;;19.60;65.90;;;;;;5130906;27;43969;-72
2022/05/04 11:45:11;;;;;;;2.40;2.40;;;19.50;66.00;;;;;;5131231;27;44107;-72
2022/05/04 11:47:39;;;;;;;2.27;2.27;;;19.50;66.20;;;;;;5130689;27;43836;-73
2022/05/04 11:50:07;;;;;;;2.50;2.40;;;19.40;66.40;;;;;;5131481;27;43960;-71
2022/05/04 11:52:40;;;;;;;2.30;2.30;;;19.40;66.60;;;;;;5130817;27;45122;-72
2022/05/04 11:55:09;;;;;;;2.73;2.33;;;19.30;66.70;;;;;;5131332;27;44006;-71
2022/05/04 11:57:40;;;;;;;2.37;2.37;;;19.30;66.80;;;;;;5131059;27;43970;-72
2022/05/04 12:00:14;;;;;;;2.47;2.30;;;19.30;66.90;;;;;;5112226;27;44034;-71
2022/05/04 12:02:42;;;;;;;2.30;2.20;;;19.30;67.30;;;;;;5130457;27;44037;-73
2022/05/04 12:05:10;;;;;;;2.30;2.20;;;19.40;67.10;;;;;;5130756;27;43981;-72
2022/05/04 12:07:40;;;;;;;2.40;2.30;;;19.60;66.50;;;;;;5130667;27;43907;-71
2022/05/04 12:10:09;;;;;;;2.47;2.37;;;19.80;66.00;;;;;;5130775;27;43453;-71
2022/05/04 12:12:37;;;;;;;2.30;2.20;;;19.90;65.50;;;;;;5130445;27;44017;-72
2022/05/04 12:15:07;;;;;;;2.50;2.37;;;20.00;65.30;;;;;;5130555;27;43832;-72
2022/05/04 12:17:36;;;;;;;2.80;2.60;;;19.90;65.10;;;;;;5130219;27;43970;-73
2022/05/04 12:20:04;;;;;;;2.30;2.30;;;19.80;65.30;;;;;;5131000;27;43381;-72
2022/05/04 12:22:33;;;;;;;2.70;2.60;;;19.70;65.40;;;;;;5130671;27;43587;-71
2022/05/04 12:25:03;;;;;;;2.53;2.47;;;19.60;65.60;;;;;;5130792;27;43633;-72
2022/05/04 12:27:31;;;;;;;2.67;2.50;;;19.50;65.90;;;;;;5130614;27;43347;-72
2022/05/04 12:33:12;;;;;;;2.60;2.50;;;19.40;66.20;;;;;;5066624;28;43964;-71
2022/05/04 12:35:42;;;;;;;2.30;2.20;;;19.40;66.80;;;;;;5065889;28;44063;-71
2022/05/04 12:38:11;;;;;;;2.60;2.40;;;19.50;66.60;;;;;;5101297;27;44011;-71
2022/05/04 12:40:40;;;;;;;2.47;2.20;;;19.60;66.30;;;;;;5111626;27;44061;-72
2022/05/04 12:43:08;;;;;;;2.27;2.27;;;19.70;65.90;;;;;;5130117;27;43912;-72
2022/05/04 12:45:37;;;;;;;2.60;2.50;;;19.70;65.70;;;;;;5129912;27;43959;-71
2022/05/04 12:48:07;;;;;;;2.43;2.33;;;19.60;65.70;;;;;;5129943;27;43935;-72
2022/05/04 12:50:34;;;;;;;2.50;2.40;;;19.50;65.90;;;;;;5111663;27;43581;-72
2022/05/04 12:53:02;;;;;;;2.30;2.27;;;19.50;66.20;;;;;;5130039;27;44429;-72
2022/05/04 12:58:17;;;;;;;2.00;2.00;;;19.40;66.60;;;;;;5111222;27;44291;-72
2022/05/04 13:00:45;;;;;;;2.60;2.50;;;19.30;66.70;;;;;;5130083;27;43911;-72
2022/05/04 13:03:13;;;;;;;2.30;2.23;;;19.30;66.90;;;;;;5129881;27;44021;-72
2022/05/04 13:05:41;;;;;;;2.50;2.40;;;19.20;66.90;;;;;;5129831;27;44044;-72
2022/05/04 13:08:09;;;;;;;2.30;2.30;;;19.20;67.20;;;;;;5130193;27;43913;-72
2022/05/04 13:10:37;;;;;;;2.30;2.30;;;19.30;67.10;;;;;;5129928;27;43601;-71
2022/05/04 13:13:05;;;;;;;2.10;2.00;;;19.50;66.90;;;;;;5110639;27;45632;-72
2022/05/04 13:15:37;;;;;;;2.47;2.37;;;19.70;66.30;;;;;;5129251;27;44173;-71
2022/05/04 13:18:07;;;;;;;2.40;2.40;;;19.80;65.60;;;;;;5129830;27;43987;-73
2022/05/04 13:20:35;;;;;;;2.20;2.10;;;19.90;65.40;;;;;;5129752;27;43981;-72
2022/05/04 13:23:03;;;;;;;2.33;2.23;;;19.80;65.20;;;;;;5129489;27;43990;-72
2022/05/04 13:25:31;;;;;;;2.10;2.10;;;19.80;65.40;;;;;;5129425;27;44068;-71
2022/05/04 13:27:59;;;;;;;2.40;2.40;;;19.70;65.60;;;;;;5129984;27;43931;-72
2022/05/04 13:30:27;;;;;;;2.40;2.23;;;19.60;65.90;;;;;;5129599;27;44004;-72
2022/05/04 13:32:56;;;;;;;2.40;2.30;;;19.50;66.10;;;;;;5129081;27;43964;-72
2022/05/04 13:35:24;;;;;;;2.10;2.10;;;19.50;66.40;;;;;;5129273;27;43861;-72
2022/05/04 13:37:53;;;;;;;2.50;2.50;;;19.40;66.60;;;;;;5129596;27;43784;-72